Time;durP1;ratioP1;P1;durP2;ratioP2;P2;SDS_P1;SDS_P2;PMS_P1;PMS_P2;Temp;Humidity;BMP_temperature;BMP_pressure;BME280_temperature;BME280_humidity;BME280_pressure;Samples;Min_cycle;Max_cycle;Signal;HPM_P1;HPM_P2
2022/10/10 00:02:01;;;;;;;8.70;7.80;;;;;;;;;;105035;1294;36372;-39
2022/10/10 00:04:33;;;;;;;8.90;7.40;;;;;;;;;;104988;1295;36285;-38
2022/10/10 00:07:05;;;;;;;8.30;7.40;;;;;;;;;;104910;1286;36424;-39
2022/10/10 00:09:38;;;;;;;8.30;7.20;;;;;;;;;;104967;1299;36423;-39
2022/10/10 00:12:10;;;;;;;8.50;7.10;;;;;;;;;;104990;1297;35487;-39
2022/10/10 00:14:44;;;;;;;8.80;7.60;;;;;;;;;;104980;1297;35167;-39
2022/10/10 00:17:16;;;;;;;8.90;7.60;;;;;;;;;;104984;1294;36678;-39
2022/10/10 00:19:48;;;;;;;9.10;7.50;;;;;;;;;;104988;1288;36898;-39
2022/10/10 00:22:20;;;;;;;8.30;6.90;;;;;;;;;;105015;1294;38075;-39
2022/10/10 00:24:53;;;;;;;9.30;7.60;;;;;;;;;;104990;1294;35905;-39
2022/10/10 00:27:25;;;;;;;9.30;7.70;;;;;;;;;;104821;1297;37614;-39
2022/10/10 00:29:57;;;;;;;9.60;7.90;;;;;;;;;;104953;1297;35436;-39
2022/10/10 00:32:30;;;;;;;8.90;7.10;;;;;;;;;;104975;1295;37374;-38
2022/10/10 00:35:03;;;;;;;8.00;7.20;;;;;;;;;;104973;1294;37088;-38
2022/10/10 00:37:35;;;;;;;8.40;7.10;;;;;;;;;;104977;1282;38005;-38
2022/10/10 00:40:10;;;;;;;8.50;7.50;;;;;;;;;;104996;1294;37633;-38
2022/10/10 00:42:45;;;;;;;7.80;7.00;;;;;;;;;;104998;1290;37476;-39
2022/10/10 00:45:31;;;;;;;8.50;7.60;;;;;;;;;;105019;1294;36338;-38
2022/10/10 00:48:10;;;;;;;8.60;7.50;;;;;;;;;;105107;1287;42866;-38
2022/10/10 00:50:48;;;;;;;8.30;7.20;;;;;;;;;;105032;1288;37569;-38
2022/10/10 00:53:26;;;;;;;8.30;7.20;;;;;;;;;;105003;1292;36941;-38
2022/10/10 00:55:58;;;;;;;8.10;7.20;;;;;;;;;;105018;1295;35714;-38
2022/10/10 00:58:36;;;;;;;8.90;7.20;;;;;;;;;;105024;1294;40295;-38
2022/10/10 01:01:09;;;;;;;8.30;7.00;;;;;;;;;;104863;1296;37628;-38
2022/10/10 01:03:41;;;;;;;9.90;8.30;;;;;;;;;;105001;1294;38064;-38
2022/10/10 01:06:14;;;;;;;8.10;7.30;;;;;;;;;;104996;1288;35947;-38
2022/10/10 01:08:46;;;;;;;8.40;7.10;;;;;;;;;;104945;1297;41854;-38
2022/10/10 01:11:41;;;;;;;8.60;7.00;;;;;;;;;;104973;1295;36272;-38
2022/10/10 01:14:27;;;;;;;8.00;7.10;;;;;;;;;;104926;1292;37353;-38
2022/10/10 01:17:07;;;;;;;8.20;6.90;;;;;;;;;;104915;1298;35996;-39
2022/10/10 01:20:21;;;;;;;8.20;6.70;;;;;;;;;;105001;1295;35967;-38
2022/10/10 01:23:19;;;;;;;7.70;6.60;;;;;;;;;;105068;1288;35004;-38
2022/10/10 01:26:06;;;;;;;8.60;7.00;;;;;;;;;;105029;1296;37489;-38
2022/10/10 01:28:46;;;;;;;8.40;6.90;;;;;;;;;;104928;1290;35799;-38
2022/10/10 01:31:22;;;;;;;8.50;7.40;;;;;;;;;;104960;1289;36164;-38
2022/10/10 01:34:07;;;;;;;8.00;6.50;;;;;;;;;;104983;1297;36087;-38
2022/10/10 01:36:48;;;;;;;8.60;7.30;;;;;;;;;;104952;1297;36106;-38
2022/10/10 01:39:29;;;;;;;8.00;6.90;;;;;;;;;;104981;1294;39815;-38
2022/10/10 01:42:09;;;;;;;8.20;7.10;;;;;;;;;;105011;1294;37774;-39
2022/10/10 01:44:52;;;;;;;8.50;7.10;;;;;;;;;;105025;1292;36488;-38
2022/10/10 01:47:25;;;;;;;7.90;7.00;;;;;;;;;;104964;1292;37634;-39
2022/10/10 01:49:58;;;;;;;;;;;;;;;;;;104968;1299;37817;-38
2022/10/10 01:52:43;;;;;;;8.10;6.90;;;;;;;;;;104967;1295;35627;-38
2022/10/10 01:55:42;;;;;;;8.30;6.80;;;;;;;;;;104899;1297;75589;-38
2022/10/10 01:58:32;;;;;;;8.70;7.30;;;;;;;;;;104924;1288;35434;-38
2022/10/10 02:01:14;;;;;;;8.40;7.10;;;;;;;;;;104999;1289;36222;-38
2022/10/10 02:03:53;;;;;;;9.00;6.90;;;;;;;;;;105015;1291;37545;-38
2022/10/10 02:06:33;;;;;;;8.40;6.80;;;;;;;;;;104984;1294;37697;-39
2022/10/10 02:09:13;;;;;;;8.00;6.50;;;;;;;;;;104952;1282;36349;-38
2022/10/10 02:11:46;;;;;;;8.00;6.90;;;;;;;;;;104981;1282;36392;-38
2022/10/10 02:14:24;;;;;;;8.10;7.00;;;;;;;;;;104973;1297;35828;-38
2022/10/10 02:17:02;;;;;;;8.20;6.80;;;;;;;;;;104981;1282;36246;-38
2022/10/10 02:19:38;;;;;;;8.80;7.10;;;;;;;;;;104992;1291;35838;-38
2022/10/10 02:22:11;;;;;;;7.80;6.70;;;;;;;;;;105011;1291;35949;-38
2022/10/10 02:24:43;;;;;;;7.80;6.40;;;;;;;;;;105017;1294;35821;-38
2022/10/10 02:27:20;;;;;;;;;;;;;;;;;;105039;1299;34953;-38
2022/10/10 02:29:57;;;;;;;7.70;6.50;;;;;;;;;;104912;1291;35892;-38
2022/10/10 02:32:34;;;;;;;8.20;6.80;;;;;;;;;;104935;1292;37609;-38
2022/10/10 02:35:15;;;;;;;7.80;6.50;;;;;;;;;;104927;1298;35833;-38
2022/10/10 02:37:48;;;;;;;8.50;7.10;;;;;;;;;;104947;1292;37601;-38
2022/10/10 02:40:26;;;;;;;8.50;7.20;;;;;;;;;;104993;1294;38146;-38
2022/10/10 02:43:01;;;;;;;9.00;7.20;;;;;;;;;;104985;1291;35134;-38
2022/10/10 02:45:35;;;;;;;7.70;6.60;;;;;;;;;;105000;1285;37359;-38
2022/10/10 02:48:10;;;;;;;7.90;6.90;;;;;;;;;;105026;1286;35936;-38
2022/10/10 02:50:42;;;;;;;7.80;6.60;;;;;;;;;;104934;1289;37580;-38
2022/10/10 02:53:14;;;;;;;7.40;6.40;;;;;;;;;;104941;1297;37724;-38
2022/10/10 02:55:46;;;;;;;7.50;6.30;;;;;;;;;;104902;1297;37793;-38
2022/10/10 02:58:18;;;;;;;8.20;6.80;;;;;;;;;;104935;1291;36248;-38
2022/10/10 03:00:51;;;;;;;7.50;6.40;;;;;;;;;;104988;1292;37624;-38
2022/10/10 03:03:24;;;;;;;6.80;5.90;;;;;;;;;;105021;1286;38085;-39
2022/10/10 03:05:56;;;;;;;7.70;6.50;;;;;;;;;;105035;1295;37717;-38
2022/10/10 03:08:28;;;;;;;8.10;6.60;;;;;;;;;;105011;1289;35846;-38
2022/10/10 03:11:03;;;;;;;7.80;6.50;;;;;;;;;;104893;1292;35883;-38
2022/10/10 03:13:35;;;;;;;7.60;6.10;;;;;;;;;;104943;1289;36804;-38
2022/10/10 03:16:10;;;;;;;7.80;6.20;;;;;;;;;;104931;1298;36908;-38
2022/10/10 03:18:42;;;;;;;7.80;6.60;;;;;;;;;;104981;1295;36016;-38
2022/10/10 03:21:14;;;;;;;7.50;6.30;;;;;;;;;;104985;1289;35910;-38
2022/10/10 03:23:45;;;;;;;7.70;6.60;;;;;;;;;;104995;1294;36126;-38
2022/10/10 03:26:18;;;;;;;8.50;7.40;;;;;;;;;;104995;1292;37674;-38
2022/10/10 03:28:50;;;;;;;7.90;6.80;;;;;;;;;;105024;1283;36500;-39
2022/10/10 03:31:23;;;;;;;7.90;7.10;;;;;;;;;;104807;1292;37732;-38
2022/10/10 03:33:55;;;;;;;7.90;6.80;;;;;;;;;;104980;1284;37701;-38
2022/10/10 03:36:27;;;;;;;7.60;6.50;;;;;;;;;;104939;1291;37109;-38
2022/10/10 03:38:59;;;;;;;8.80;6.90;;;;;;;;;;104971;1291;37501;-38
2022/10/10 03:41:31;;;;;;;8.40;6.80;;;;;;;;;;104963;1291;36032;-38
2022/10/10 03:44:03;;;;;;;7.40;6.60;;;;;;;;;;104981;1282;36404;-38
2022/10/10 03:46:35;;;;;;;8.30;6.60;;;;;;;;;;105028;1290;36284;-38
2022/10/10 03:49:09;;;;;;;7.70;6.70;;;;;;;;;;105026;1282;35096;-38
2022/10/10 03:51:41;;;;;;;7.80;6.60;;;;;;;;;;104923;1292;34921;-38
2022/10/10 03:54:13;;;;;;;8.10;6.60;;;;;;;;;;104974;1298;36851;-38
2022/10/10 03:56:45;;;;;;;7.70;6.70;;;;;;;;;;104980;1291;37603;-38
2022/10/10 03:59:19;;;;;;;8.50;6.60;;;;;;;;;;105016;1291;36158;-38
2022/10/10 04:01:51;;;;;;;6.80;5.90;;;;;;;;;;104978;1290;36064;-38
2022/10/10 04:04:25;;;;;;;7.10;6.30;;;;;;;;;;105056;1288;35471;-38
2022/10/10 04:06:58;;;;;;;7.50;6.30;;;;;;;;;;105031;1291;37753;-38
2022/10/10 04:09:31;;;;;;;7.70;6.40;;;;;;;;;;105009;1291;37601;-38
2022/10/10 04:12:06;;;;;;;7.50;6.50;;;;;;;;;;104928;1289;37595;-38
2022/10/10 04:14:38;;;;;;;7.00;6.10;;;;;;;;;;104971;1299;34779;-38
2022/10/10 04:17:10;;;;;;;7.20;6.10;;;;;;;;;;104976;1292;37002;-38
2022/10/10 04:19:42;;;;;;;7.30;6.40;;;;;;;;;;104963;1289;37597;-38
2022/10/10 04:22:16;;;;;;;7.30;6.10;;;;;;;;;;104966;1298;34757;-38
2022/10/10 04:24:48;;;;;;;8.20;6.40;;;;;;;;;;105013;1294;37649;-38
2022/10/10 04:27:21;;;;;;;6.90;5.80;;;;;;;;;;104995;1292;36164;-38
2022/10/10 04:29:53;;;;;;;7.70;6.10;;;;;;;;;;104985;1282;37623;-38
2022/10/10 04:32:31;;;;;;;8.10;6.30;;;;;;;;;;104939;1291;36084;-38
2022/10/10 04:35:05;;;;;;;7.40;5.80;;;;;;;;;;104981;1285;36128;-38
2022/10/10 04:37:37;;;;;;;7.10;5.90;;;;;;;;;;104962;1291;35287;-38
2022/10/10 04:40:14;;;;;;;7.00;5.70;;;;;;;;;;104981;1291;36235;-38
2022/10/10 04:42:46;;;;;;;7.40;6.00;;;;;;;;;;104991;1289;36440;-38
2022/10/10 04:45:20;;;;;;;7.00;6.00;;;;;;;;;;104991;1294;34954;-38
2022/10/10 04:47:51;;;;;;;6.70;5.60;;;;;;;;;;105007;1291;36961;-38
2022/10/10 04:50:25;;;;;;;6.80;5.50;;;;;;;;;;104994;1283;36471;-38
2022/10/10 04:52:55;;;;;;;;;;;;;;;;;;104973;1289;35213;-38
2022/10/10 04:55:27;;;;;;;7.40;5.90;;;;;;;;;;104976;1289;34537;-38
2022/10/10 04:57:59;;;;;;;;;;;;;;;;;;104874;1298;35993;-38
2022/10/10 05:00:31;;;;;;;6.90;5.60;;;;;;;;;;104982;1299;37326;-38
2022/10/10 05:03:05;;;;;;;6.50;5.50;;;;;;;;;;104947;1294;37755;-38
2022/10/10 05:05:38;;;;;;;7.60;5.70;;;;;;;;;;104980;1291;36152;-38
2022/10/10 05:08:12;;;;;;;7.50;5.90;;;;;;;;;;105008;1289;37824;-38
2022/10/10 05:10:45;;;;;;;7.40;5.90;;;;;;;;;;104990;1282;37680;-38
2022/10/10 05:13:18;;;;;;;6.30;5.20;;;;;;;;;;104956;1291;37787;-38
2022/10/10 05:15:53;;;;;;;6.70;5.60;;;;;;;;;;104947;1290;37506;-38
2022/10/10 05:18:25;;;;;;;6.70;5.50;;;;;;;;;;104963;1292;36158;-38
2022/10/10 05:20:57;;;;;;;6.30;4.90;;;;;;;;;;104966;1288;35111;-38
2022/10/10 05:23:29;;;;;;;6.70;5.20;;;;;;;;;;104996;1291;37943;-38
2022/10/10 05:26:01;;;;;;;6.60;5.10;;;;;;;;;;104847;1291;36132;-38
2022/10/10 05:28:35;;;;;;;7.50;5.50;;;;;;;;;;104996;1289;36173;-38
2022/10/10 05:31:07;;;;;;;6.70;5.30;;;;;;;;;;105035;1291;35041;-38
2022/10/10 05:33:39;;;;;;;7.30;5.40;;;;;;;;;;104942;1291;35178;-38
2022/10/10 05:36:14;;;;;;;7.20;5.60;;;;;;;;;;104966;1286;36175;-38
2022/10/10 05:38:46;;;;;;;6.70;5.30;;;;;;;;;;104978;1289;36161;-38
2022/10/10 05:41:18;;;;;;;6.40;4.80;;;;;;;;;;104936;1291;37749;-37
2022/10/10 05:43:51;;;;;;;7.20;5.50;;;;;;;;;;104954;1282;38381;-37
2022/10/10 05:46:26;;;;;;;6.50;5.30;;;;;;;;;;104975;1296;36255;-37
2022/10/10 05:48:58;;;;;;;6.60;5.10;;;;;;;;;;104965;1283;38245;-37
2022/10/10 05:51:32;;;;;;;6.10;4.90;;;;;;;;;;105014;1291;36079;-37
2022/10/10 05:54:05;;;;;;;6.70;5.10;;;;;;;;;;104923;1289;37643;-37
2022/10/10 05:56:37;;;;;;;6.30;5.00;;;;;;;;;;104954;1290;37417;-35
2022/10/10 05:59:12;;;;;;;7.70;5.10;;;;;;;;;;104950;1291;36199;-36
2022/10/10 06:01:44;;;;;;;6.00;4.80;;;;;;;;;;104947;1291;37748;-37
2022/10/10 06:04:16;;;;;;;6.50;5.10;;;;;;;;;;104964;1291;37607;-37
2022/10/10 06:06:48;;;;;;;6.50;4.80;;;;;;;;;;105010;1288;36042;-36
2022/10/10 06:09:20;;;;;;;6.60;4.70;;;;;;;;;;105004;1291;36732;-36
2022/10/10 06:11:52;;;;;;;6.20;5.00;;;;;;;;;;105016;1295;36163;-36
2022/10/10 06:14:24;;;;;;;7.10;5.10;;;;;;;;;;104928;1295;37826;-36
2022/10/10 06:16:56;;;;;;;6.10;4.60;;;;;;;;;;104964;1292;37608;-37
2022/10/10 06:19:31;;;;;;;7.30;5.80;;;;;;;;;;104874;1286;36161;-37
2022/10/10 06:22:06;;;;;;;6.80;5.20;;;;;;;;;;104962;1289;36177;-37
2022/10/10 06:24:41;;;;;;;7.70;5.00;;;;;;;;;;104956;1282;36513;-37
2022/10/10 06:27:15;;;;;;;7.30;5.20;;;;;;;;;;105031;1289;35368;-37
2022/10/10 06:29:47;;;;;;;7.30;5.30;;;;;;;;;;105031;1288;38305;-37
2022/10/10 06:32:22;;;;;;;6.10;4.90;;;;;;;;;;105024;1290;38471;-37
2022/10/10 06:34:57;;;;;;;7.30;5.00;;;;;;;;;;104908;1297;36192;-37
2022/10/10 06:37:30;;;;;;;7.00;5.00;;;;;;;;;;104967;1289;37724;-37
2022/10/10 06:40:02;;;;;;;6.60;4.90;;;;;;;;;;104950;1295;36561;-37
2022/10/10 06:42:34;;;;;;;7.20;5.70;;;;;;;;;;104956;1284;36630;-37
2022/10/10 06:45:09;;;;;;;6.90;5.00;;;;;;;;;;104992;1291;36278;-37
2022/10/10 06:47:41;;;;;;;7.70;4.90;;;;;;;;;;105078;1282;36186;-37
2022/10/10 06:50:13;;;;;;;6.40;4.70;;;;;;;;;;105019;1291;35959;-37
2022/10/10 06:52:45;;;;;;;7.00;4.90;;;;;;;;;;105031;1296;37683;-37
2022/10/10 06:55:17;;;;;;;7.20;5.30;;;;;;;;;;104315;1288;144448;-36
2022/10/10 06:58:06;;;;;;;6.90;5.10;;;;;;;;;;101871;1328;568692;-34
2022/10/10 07:00:39;;;;;;;7.00;4.90;;;;;;;;;;103482;1307;38218;-37
2022/10/10 07:03:16;;;;;;;8.00;4.90;;;;;;;;;;103614;1306;37968;-36
2022/10/10 07:05:53;;;;;;;6.40;5.20;;;;;;;;;;103544;1306;38010;-36
2022/10/10 07:08:26;;;;;;;6.60;5.30;;;;;;;;;;103537;1307;37780;-36
2022/10/10 07:10:58;;;;;;;8.10;5.40;;;;;;;;;;103365;1296;163293;-36
2022/10/10 07:13:29;;;;;;;7.40;5.00;;;;;;;;;;103648;1299;36175;-36
2022/10/10 07:16:02;;;;;;;7.50;5.00;;;;;;;;;;103623;1307;37087;-37
2022/10/10 07:18:36;;;;;;;7.00;5.30;;;;;;;;;;103762;1303;36160;-38
2022/10/10 07:21:09;;;;;;;6.40;4.80;;;;;;;;;;103824;1303;37747;-38
2022/10/10 07:23:41;;;;;;;7.00;5.00;;;;;;;;;;103839;1299;36529;-36
2022/10/10 07:26:15;;;;;;;6.80;5.10;;;;;;;;;;103857;1303;37927;-38
2022/10/10 07:28:47;;;;;;;6.00;4.90;;;;;;;;;;103774;1303;36331;-35
2022/10/10 07:31:20;;;;;;;6.50;5.20;;;;;;;;;;103817;1304;36161;-36
2022/10/10 07:33:53;;;;;;;7.30;5.00;;;;;;;;;;103750;1312;36347;-35
2022/10/10 07:36:23;;;;;;;;;;;;;;;;;;103838;1309;35212;-35
2022/10/10 07:38:55;;;;;;;7.30;5.30;;;;;;;;;;104022;1307;37383;-35
2022/10/10 07:41:27;;;;;;;6.40;4.70;;;;;;;;;;104164;1307;37756;-37
2022/10/10 07:43:59;;;;;;;6.50;4.80;;;;;;;;;;104127;1304;38424;-35
2022/10/10 07:46:32;;;;;;;6.00;4.70;;;;;;;;;;103983;1302;36171;-36
2022/10/10 07:49:04;;;;;;;6.70;5.00;;;;;;;;;;103785;1300;37685;-35
2022/10/10 07:51:36;;;;;;;7.10;5.00;;;;;;;;;;103802;1302;35979;-35
2022/10/10 07:54:09;;;;;;;6.80;5.10;;;;;;;;;;103715;1300;37957;-36
2022/10/10 07:56:41;;;;;;;7.00;5.20;;;;;;;;;;103770;1303;34982;-36
2022/10/10 07:59:13;;;;;;;6.90;5.10;;;;;;;;;;103845;1303;35159;-36
2022/10/10 08:01:46;;;;;;;6.80;5.20;;;;;;;;;;104175;1302;38006;-35
2022/10/10 08:04:17;;;;;;;7.90;4.80;;;;;;;;;;103995;1295;37829;-35
2022/10/10 08:06:49;;;;;;;7.20;4.80;;;;;;;;;;103961;1309;34931;-37
2022/10/10 08:09:24;;;;;;;6.70;4.90;;;;;;;;;;103738;1304;37786;-37
2022/10/10 08:11:55;;;;;;;7.40;5.20;;;;;;;;;;103663;1309;36279;-34
2022/10/10 08:14:27;;;;;;;6.70;5.20;;;;;;;;;;103657;1303;37770;-36
2022/10/10 08:16:59;;;;;;;7.40;6.10;;;;;;;;;;103959;1309;37738;-36
2022/10/10 08:19:31;;;;;;;7.80;6.60;;;;;;;;;;104084;1303;36142;-36
2022/10/10 08:22:05;;;;;;;9.80;7.10;;;;;;;;;;104224;1301;36386;-36
2022/10/10 08:24:37;;;;;;;8.60;6.70;;;;;;;;;;104396;1292;37740;-37
2022/10/10 08:27:09;;;;;;;9.10;5.80;;;;;;;;;;104232;1290;35596;-37
2022/10/10 08:29:41;;;;;;;6.80;5.70;;;;;;;;;;104233;1299;37753;-38
2022/10/10 08:32:13;;;;;;;7.90;5.80;;;;;;;;;;104287;1305;37819;-36
2022/10/10 08:34:48;;;;;;;6.70;5.50;;;;;;;;;;104248;1303;37544;-36
2022/10/10 08:37:20;;;;;;;7.00;5.10;;;;;;;;;;104367;1301;35088;-39
2022/10/10 08:39:51;;;;;;;7.30;5.30;;;;;;;;;;104361;1299;37750;-38
2022/10/10 08:42:33;;;;;;;6.40;5.20;;;;;;;;;;104435;1303;37852;-37
2022/10/10 08:45:19;;;;;;;5.80;4.70;;;;;;;;;;104446;1297;37615;-36
2022/10/10 08:47:55;;;;;;;7.40;5.40;;;;;;;;;;104460;1301;37920;-38
2022/10/10 08:50:32;;;;;;;8.60;5.20;;;;;;;;;;104361;1301;36652;-38
2022/10/10 08:53:10;;;;;;;6.70;5.00;;;;;;;;;;104382;1305;35224;-37
2022/10/10 08:55:45;;;;;;;7.50;5.10;;;;;;;;;;104367;1299;37818;-37
2022/10/10 08:58:24;;;;;;;8.60;5.00;;;;;;;;;;104425;1299;34971;-38
2022/10/10 09:01:07;;;;;;;6.40;4.60;;;;;;;;;;104539;1296;37431;-37
2022/10/10 09:03:46;;;;;;;7.20;5.10;;;;;;;;;;104547;1295;37582;-37
2022/10/10 09:06:36;;;;;;;5.80;4.60;;;;;;;;;;104623;1288;37252;-38
2022/10/10 09:09:22;;;;;;;6.60;4.80;;;;;;;;;;104584;1300;36638;-38
2022/10/10 09:12:10;;;;;;;6.30;4.70;;;;;;;;;;104494;1299;35315;-37
2022/10/10 09:14:51;;;;;;;6.60;4.80;;;;;;;;;;104498;1298;37864;-38
2022/10/10 09:17:41;;;;;;;7.90;5.30;;;;;;;;;;104482;1297;37906;-37
2022/10/10 09:20:39;;;;;;;5.80;4.70;;;;;;;;;;104492;1297;36095;-37
2022/10/10 09:23:23;;;;;;;7.00;4.80;;;;;;;;;;104567;1298;36125;-40
2022/10/10 09:26:02;;;;;;;6.20;4.60;;;;;;;;;;104578;1298;36126;-37
2022/10/10 09:28:42;;;;;;;6.90;4.70;;;;;;;;;;104570;1296;37785;-39
2022/10/10 09:31:23;;;;;;;6.10;4.90;;;;;;;;;;104462;1300;33563;-37
2022/10/10 09:34:01;;;;;;;6.40;5.00;;;;;;;;;;104503;1298;36109;-39
2022/10/10 09:36:37;;;;;;;5.70;4.60;;;;;;;;;;104477;1298;35186;-38
2022/10/10 09:39:21;;;;;;;6.40;4.90;;;;;;;;;;104478;1298;37734;-35
2022/10/10 09:42:00;;;;;;;6.20;4.60;;;;;;;;;;104512;1295;36677;-37
2022/10/10 09:44:36;;;;;;;5.40;4.30;;;;;;;;;;104577;1295;36288;-36
2022/10/10 09:47:11;;;;;;;5.80;4.50;;;;;;;;;;104585;1297;35599;-36
2022/10/10 09:49:46;;;;;;;6.20;4.40;;;;;;;;;;104573;1298;36069;-38
2022/10/10 09:52:33;;;;;;;6.40;4.50;;;;;;;;;;104445;1304;36154;-37
2022/10/10 09:55:21;;;;;;;7.90;4.80;;;;;;;;;;104475;1297;37632;-36
2022/10/10 09:57:56;;;;;;;6.10;4.30;;;;;;;;;;104496;1297;36292;-38
2022/10/10 10:00:35;;;;;;;6.10;4.50;;;;;;;;;;104443;1280;36033;-39
2022/10/10 10:03:14;;;;;;;5.50;4.10;;;;;;;;;;104576;1291;37206;-36
2022/10/10 10:05:56;;;;;;;5.50;4.40;;;;;;;;;;104487;1301;37829;-37
2022/10/10 10:08:33;;;;;;;6.20;4.80;;;;;;;;;;104455;1297;36179;-36
2022/10/10 10:11:24;;;;;;;6.10;4.30;;;;;;;;;;104319;1301;36125;-36
2022/10/10 10:14:01;;;;;;;5.60;4.10;;;;;;;;;;104418;1291;37944;-38
2022/10/10 10:16:38;;;;;;;6.20;4.10;;;;;;;;;;104420;1290;35057;-37
2022/10/10 10:19:34;;;;;;;5.90;4.10;;;;;;;;;;104447;1297;37730;-36
2022/10/10 10:22:10;;;;;;;5.60;3.90;;;;;;;;;;104443;1294;37554;-37
2022/10/10 10:24:42;;;;;;;5.90;4.20;;;;;;;;;;104513;1298;38124;-36
2022/10/10 10:27:22;;;;;;;6.40;3.80;;;;;;;;;;104465;1304;37900;-37
2022/10/10 10:29:57;;;;;;;5.70;4.30;;;;;;;;;;104445;1297;35364;-37
2022/10/10 10:32:50;;;;;;;5.60;4.00;;;;;;;;;;104402;1291;37975;-38
2022/10/10 10:35:34;;;;;;;5.90;4.20;;;;;;;;;;104385;1301;38057;-37
2022/10/10 10:38:21;;;;;;;5.10;3.90;;;;;;;;;;104461;1298;37755;-36
2022/10/10 10:41:09;;;;;;;5.50;4.00;;;;;;;;;;104337;1297;37768;-35
2022/10/10 10:44:05;;;;;;;6.40;4.50;;;;;;;;;;104504;1296;37839;-36
2022/10/10 10:46:57;;;;;;;5.00;3.90;;;;;;;;;;104794;1294;36081;-37
2022/10/10 10:49:39;;;;;;;5.70;3.80;;;;;;;;;;104839;1292;36132;-36
2022/10/10 10:52:40;;;;;;;6.40;4.00;;;;;;;;;;104735;1294;36208;-35
2022/10/10 10:55:37;;;;;;;5.30;4.00;;;;;;;;;;104711;1294;36192;-35
2022/10/10 10:58:52;;;;;;;5.30;4.20;;;;;;;;;;104765;1295;36171;-36
2022/10/10 11:01:35;;;;;;;5.50;4.00;;;;;;;;;;104747;1294;37771;-35
2022/10/10 11:04:12;;;;;;;;;;;;;;;;;;104770;1290;36174;-36
2022/10/10 11:06:59;;;;;;;6.00;4.00;;;;;;;;;;104831;1294;35618;-37
2022/10/10 11:09:38;;;;;;;5.10;3.50;;;;;;;;;;104795;1294;36077;-36
2022/10/10 11:12:27;;;;;;;5.60;4.00;;;;;;;;;;104773;1295;37846;-36
2022/10/10 11:15:05;;;;;;;5.70;3.80;;;;;;;;;;104741;1292;36114;-36
2022/10/10 11:17:45;;;;;;;5.50;3.80;;;;;;;;;;104723;1294;36391;-37
2022/10/10 11:20:27;;;;;;;5.80;3.90;;;;;;;;;;104719;1292;37907;-36
2022/10/10 11:23:10;;;;;;;5.10;4.10;;;;;;;;;;104687;1295;38383;-36
2022/10/10 11:25:49;;;;;;;5.40;3.60;;;;;;;;;;104796;1297;37734;-35
2022/10/10 11:28:28;;;;;;;5.60;3.60;;;;;;;;;;104791;1277;36661;-37
2022/10/10 11:31:05;;;;;;;5.60;3.30;;;;;;;;;;104810;1294;34927;-36
2022/10/10 11:33:42;;;;;;;5.30;3.70;;;;;;;;;;104735;1294;37751;-36
2022/10/10 11:36:18;;;;;;;5.30;3.70;;;;;;;;;;104733;1295;37814;-36
2022/10/10 11:38:59;;;;;;;5.60;3.40;;;;;;;;;;104715;1298;37722;-36
2022/10/10 11:41:38;;;;;;;4.90;3.70;;;;;;;;;;104704;1294;36109;-36
2022/10/10 11:44:17;;;;;;;5.10;3.30;;;;;;;;;;104723;1301;38226;-37
2022/10/10 11:46:58;;;;;;;4.70;3.30;;;;;;;;;;104652;1286;37725;-38
2022/10/10 11:49:38;;;;;;;5.60;3.40;;;;;;;;;;104713;1292;37936;-37
2022/10/10 11:52:25;;;;;;;5.80;3.40;;;;;;;;;;104806;1286;37773;-39
2022/10/10 11:55:06;;;;;;;5.80;3.60;;;;;;;;;;104588;1300;37866;-38
2022/10/10 11:57:45;;;;;;;4.80;3.00;;;;;;;;;;104595;1294;35992;-38
2022/10/10 12:00:22;;;;;;;4.60;3.30;;;;;;;;;;104591;1288;37231;-37
2022/10/10 12:02:54;;;;;;;4.90;3.20;;;;;;;;;;104681;1286;38397;-38
2022/10/10 12:05:37;;;;;;;5.80;3.40;;;;;;;;;;104577;1286;37883;-37
2022/10/10 12:08:16;;;;;;;5.00;3.30;;;;;;;;;;104613;1295;37960;-37
2022/10/10 12:10:56;;;;;;;4.60;3.20;;;;;;;;;;104625;1297;37845;-37
2022/10/10 12:13:36;;;;;;;5.00;3.30;;;;;;;;;;104569;1288;35132;-38
2022/10/10 12:16:13;;;;;;;4.10;2.80;;;;;;;;;;104703;1292;38318;-37
2022/10/10 12:18:51;;;;;;;4.50;2.90;;;;;;;;;;104690;1288;38126;-38
2022/10/10 12:21:28;;;;;;;4.80;3.10;;;;;;;;;;104686;1292;37852;-37
2022/10/10 12:24:11;;;;;;;4.30;2.90;;;;;;;;;;104655;1295;35456;-36
2022/10/10 12:27:28;;;;;;;4.70;2.90;;;;;;;;;;104642;1294;35479;-39
2022/10/10 12:30:32;;;;;;;5.00;2.90;;;;;;;;;;104620;1288;37901;-37
2022/10/10 12:33:11;;;;;;;4.50;2.80;;;;;;;;;;104361;1291;37871;-37
2022/10/10 12:35:44;;;;;;;4.30;2.70;;;;;;;;;;104360;1304;36235;-36
2022/10/10 12:38:27;;;;;;;4.10;2.80;;;;;;;;;;104566;1300;37793;-38
2022/10/10 12:41:12;;;;;;;5.00;3.00;;;;;;;;;;104712;1292;35251;-39
2022/10/10 12:44:23;;;;;;;4.10;2.80;;;;;;;;;;104723;1295;38243;-38
2022/10/10 12:47:29;;;;;;;5.80;2.90;;;;;;;;;;104673;1288;37828;-37
2022/10/10 12:50:05;;;;;;;4.50;3.20;;;;;;;;;;104536;1300;37747;-38
2022/10/10 12:52:48;;;;;;;4.80;3.00;;;;;;;;;;104587;1294;38512;-37
2022/10/10 12:55:25;;;;;;;5.20;2.90;;;;;;;;;;104589;1297;36375;-38
2022/10/10 12:58:00;;;;;;;4.40;2.80;;;;;;;;;;104715;1294;37839;-38
2022/10/10 13:00:43;;;;;;;4.60;2.50;;;;;;;;;;104747;1293;36544;-39
2022/10/10 13:03:23;;;;;;;4.20;2.50;;;;;;;;;;104727;1294;37638;-38
2022/10/10 13:06:08;;;;;;;4.50;2.90;;;;;;;;;;104694;1277;36180;-36
2022/10/10 13:08:43;;;;;;;4.70;2.40;;;;;;;;;;104626;1294;38193;-36
2022/10/10 13:11:16;;;;;;;4.60;2.60;;;;;;;;;;104645;1294;37355;-35
2022/10/10 13:13:54;;;;;;;4.40;2.80;;;;;;;;;;104641;1294;36004;-36
2022/10/10 13:16:28;;;;;;;4.30;2.70;;;;;;;;;;104639;1292;37859;-35
2022/10/10 13:19:01;;;;;;;4.20;2.60;;;;;;;;;;104742;1294;35255;-36
2022/10/10 13:21:35;;;;;;;3.80;2.50;;;;;;;;;;104612;1294;37703;-36
2022/10/10 13:24:14;;;;;;;4.10;2.60;;;;;;;;;;104730;1294;34956;-37
2022/10/10 13:26:51;;;;;;;4.50;2.70;;;;;;;;;;104623;1294;36106;-37
2022/10/10 13:29:30;;;;;;;3.80;2.40;;;;;;;;;;104630;1293;37758;-36
2022/10/10 13:32:06;;;;;;;4.50;2.60;;;;;;;;;;104646;1295;37822;-35
2022/10/10 13:34:42;;;;;;;4.40;2.50;;;;;;;;;;104635;1294;37850;-36
2022/10/10 13:37:17;;;;;;;4.40;2.70;;;;;;;;;;104638;1294;36197;-36
2022/10/10 13:39:52;;;;;;;4.50;2.30;;;;;;;;;;104743;1294;36134;-36
2022/10/10 13:42:35;;;;;;;4.00;2.20;;;;;;;;;;104773;1294;37751;-37
2022/10/10 13:45:32;;;;;;;4.40;2.50;;;;;;;;;;104713;1292;37730;-37
2022/10/10 13:48:22;;;;;;;4.30;2.40;;;;;;;;;;104609;1294;36126;-37
2022/10/10 13:51:07;;;;;;;3.90;2.30;;;;;;;;;;104653;1294;36211;-37
2022/10/10 13:53:51;;;;;;;4.90;2.40;;;;;;;;;;104668;1294;35255;-37
2022/10/10 13:56:30;;;;;;;4.90;2.50;;;;;;;;;;104743;1288;36243;-37
2022/10/10 13:59:12;;;;;;;4.50;2.40;;;;;;;;;;104756;1291;38106;-37
2022/10/10 14:01:46;;;;;;;4.00;2.20;;;;;;;;;;104782;1291;36234;-37
2022/10/10 14:04:27;;;;;;;4.10;2.40;;;;;;;;;;104791;1291;36688;-37
2022/10/10 14:07:06;;;;;;;4.10;2.10;;;;;;;;;;104713;1292;36072;-37
2022/10/10 14:09:44;;;;;;;4.50;2.50;;;;;;;;;;104714;1294;37577;-39
2022/10/10 14:12:30;;;;;;;4.00;2.40;;;;;;;;;;104751;1294;35302;-37
2022/10/10 14:15:04;;;;;;;4.40;2.30;;;;;;;;;;104764;1299;37797;-37
2022/10/10 14:17:36;;;;;;;4.30;2.20;;;;;;;;;;104726;1291;36317;-37
2022/10/10 14:20:18;;;;;;;4.80;2.30;;;;;;;;;;104757;1292;37797;-38
2022/10/10 14:22:49;;;;;;;4.50;2.30;;;;;;;;;;104739;1291;37901;-37
2022/10/10 14:25:21;;;;;;;5.60;2.30;;;;;;;;;;104766;1291;35107;-37
2022/10/10 14:27:53;;;;;;;4.10;2.40;;;;;;;;;;104697;1291;37705;-38
2022/10/10 14:30:25;;;;;;;4.10;2.20;;;;;;;;;;104697;1294;36195;-37
2022/10/10 14:32:57;;;;;;;4.20;2.20;;;;;;;;;;104728;1298;37750;-37
2022/10/10 14:35:30;;;;;;;4.80;2.50;;;;;;;;;;104721;1301;35311;-37
2022/10/10 14:38:02;;;;;;;4.20;2.20;;;;;;;;;;104691;1291;37758;-38
2022/10/10 14:40:35;;;;;;;3.80;2.30;;;;;;;;;;104761;1291;36256;-37
2022/10/10 14:43:07;;;;;;;4.50;2.30;;;;;;;;;;104738;1291;37924;-37
2022/10/10 14:45:39;;;;;;;4.10;2.00;;;;;;;;;;104765;1291;37976;-37
2022/10/10 14:48:12;;;;;;;4.10;1.90;;;;;;;;;;104715;1294;35359;-37
2022/10/10 14:50:47;;;;;;;4.90;2.50;;;;;;;;;;104736;1294;37195;-37
2022/10/10 14:53:21;;;;;;;4.90;2.50;;;;;;;;;;104712;1291;37768;-37
2022/10/10 14:55:53;;;;;;;4.50;2.20;;;;;;;;;;104617;1291;37680;-37
2022/10/10 14:58:27;;;;;;;4.50;2.20;;;;;;;;;;104634;1294;37885;-37
2022/10/10 15:01:01;;;;;;;4.00;2.20;;;;;;;;;;104709;1292;37659;-37
2022/10/10 15:03:34;;;;;;;4.20;2.10;;;;;;;;;;104708;1292;36731;-37
2022/10/10 15:06:08;;;;;;;4.50;2.20;;;;;;;;;;104721;1285;37872;-37
2022/10/10 15:08:43;;;;;;;4.10;2.10;;;;;;;;;;104633;1298;37825;-37
2022/10/10 15:11:18;;;;;;;3.80;2.20;;;;;;;;;;104442;1294;214348;-38
2022/10/10 15:13:56;;;;;;;3.50;1.90;;;;;;;;;;104611;1294;35762;-37
2022/10/10 15:16:29;;;;;;;3.40;1.90;;;;;;;;;;104609;1294;35965;-37
2022/10/10 15:19:01;;;;;;;4.60;2.20;;;;;;;;;;104675;1294;37733;-37
2022/10/10 15:21:32;;;;;;;4.50;2.20;;;;;;;;;;104729;1295;36206;-37
2022/10/10 15:24:05;;;;;;;4.30;2.20;;;;;;;;;;104727;1295;37845;-37
2022/10/10 15:26:37;;;;;;;4.00;2.20;;;;;;;;;;104759;1294;37755;-37
2022/10/10 15:29:10;;;;;;;4.90;2.10;;;;;;;;;;104641;1294;37733;-37